sensor_id;sensor_type;location;lat;lon;timestamp;pressure;altitude;pressure_sealevel;temperature;humidity
15382;BME280;7789;51.364;12.358;2023-01-28T00:04:43;101286.38;;;3.96;100.00
15382;BME280;7789;51.364;12.358;2023-01-28T00:09:46;101286.50;;;3.93;100.00
15382;BME280;7789;51.364;12.358;2023-01-28T00:14:49;101284.09;;;3.88;100.00
15382;BME280;7789;51.364;12.358;2023-01-28T00:19:54;101291.06;;;3.86;100.00
15382;BME280;7789;51.364;12.358;2023-01-28T00:24:57;101280.78;;;3.85;100.00
15382;BME280;7789;51.364;12.358;2023-01-28T00:30:01;101282.53;;;3.84;100.00
15382;BME280;7789;51.364;12.358;2023-01-28T00:35:07;101280.78;;;3.85;100.00
15382;BME280;7789;51.364;12.358;2023-01-28T00:40:12;101283.38;;;3.85;100.00
15382;BME280;7789;51.364;12.358;2023-01-28T00:45:16;101287.63;;;3.86;100.00
15382;BME280;7789;51.364;12.358;2023-01-28T00:50:21;101296.25;;;3.86;100.00
15382;BME280;7789;51.364;12.358;2023-01-28T00:55:24;101299.75;;;3.85;100.00
15382;BME280;7789;51.364;12.358;2023-01-28T01:00:27;101306.81;;;3.80;100.00
15382;BME280;7789;51.364;12.358;2023-01-28T01:05:32;101308.50;;;3.81;100.00
15382;BME280;7789;51.364;12.358;2023-01-28T01:10:36;101290.47;;;3.80;100.00
15382;BME280;7789;51.364;12.358;2023-01-28T01:15:40;101293.84;;;3.82;100.00
15382;BME280;7789;51.364;12.358;2023-01-28T01:20:44;101296.59;;;3.77;100.00
15382;BME280;7789;51.364;12.358;2023-01-28T01:25:52;101306.09;;;3.77;100.00
15382;BME280;7789;51.364;12.358;2023-01-28T01:31:00;101307.97;;;3.73;100.00
15382;BME280;7789;51.364;12.358;2023-01-28T01:36:13;101304.66;;;3.70;100.00
15382;BME280;7789;51.364;12.358;2023-01-28T01:41:23;101305.69;;;3.66;100.00
15382;BME280;7789;51.364;12.358;2023-01-28T01:46:38;101307.41;;;3.65;100.00
15382;BME280;7789;51.364;12.358;2023-01-28T01:51:45;101308.31;;;3.64;100.00
15382;BME280;7789;51.364;12.358;2023-01-28T01:56:51;101311.09;;;3.60;100.00
15382;BME280;7789;51.364;12.358;2023-01-28T02:01:56;101315.34;;;3.61;100.00
15382;BME280;7789;51.364;12.358;2023-01-28T02:07:02;101326.66;;;3.58;100.00
15382;BME280;7789;51.364;12.358;2023-01-28T02:12:08;101330.13;;;3.58;100.00
15382;BME280;7789;51.364;12.358;2023-01-28T02:17:12;101328.31;;;3.59;100.00
15382;BME280;7789;51.364;12.358;2023-01-28T02:22:29;101340.72;;;3.52;100.00
15382;BME280;7789;51.364;12.358;2023-01-28T02:27:56;101336.50;;;3.49;100.00
15382;BME280;7789;51.364;12.358;2023-01-28T02:33:05;101331.38;;;3.48;100.00
15382;BME280;7789;51.364;12.358;2023-01-28T02:38:14;101328.97;;;3.43;100.00
15382;BME280;7789;51.364;12.358;2023-01-28T02:43:31;101338.63;;;3.38;100.00
15382;BME280;7789;51.364;12.358;2023-01-28T02:48:34;101337.66;;;3.41;100.00
15382;BME280;7789;51.364;12.358;2023-01-28T02:53:40;101337.72;;;3.39;100.00
15382;BME280;7789;51.364;12.358;2023-01-28T02:58:57;101338.44;;;3.43;100.00
15382;BME280;7789;51.364;12.358;2023-01-28T03:04:25;101339.75;;;3.31;100.00
15382;BME280;7789;51.364;12.358;2023-01-28T03:09:30;101329.59;;;3.27;100.00
15382;BME280;7789;51.364;12.358;2023-01-28T03:14:37;101334.31;;;3.16;100.00
15382;BME280;7789;51.364;12.358;2023-01-28T03:19:58;101342.50;;;3.04;100.00
15382;BME280;7789;51.364;12.358;2023-01-28T03:25:20;101352.75;;;3.05;100.00
15382;BME280;7789;51.364;12.358;2023-01-28T03:30:47;101359.44;;;3.11;100.00
15382;BME280;7789;51.364;12.358;2023-01-28T03:36:10;101363.72;;;3.12;100.00
15382;BME280;7789;51.364;12.358;2023-01-28T03:41:31;101375.00;;;3.09;100.00
15382;BME280;7789;51.364;12.358;2023-01-28T03:46:35;101362.88;;;3.11;100.00
15382;BME280;7789;51.364;12.358;2023-01-28T03:51:40;101375.00;;;3.09;100.00
15382;BME280;7789;51.364;12.358;2023-01-28T03:56:43;101365.66;;;3.05;100.00
15382;BME280;7789;51.364;12.358;2023-01-28T04:01:48;101359.50;;;3.09;100.00
15382;BME280;7789;51.364;12.358;2023-01-28T04:06:56;101367.31;;;3.08;100.00
15382;BME280;7789;51.364;12.358;2023-01-28T04:11:59;101371.56;;;3.09;100.00
15382;BME280;7789;51.364;12.358;2023-01-28T04:17:04;101373.31;;;3.08;100.00
15382;BME280;7789;51.364;12.358;2023-01-28T04:22:09;101375.84;;;3.10;100.00
15382;BME280;7789;51.364;12.358;2023-01-28T04:27:13;101386.16;;;3.10;100.00
15382;BME280;7789;51.364;12.358;2023-01-28T04:32:17;101386.06;;;3.13;100.00
15382;BME280;7789;51.364;12.358;2023-01-28T04:37:21;101383.31;;;3.17;100.00
15382;BME280;7789;51.364;12.358;2023-01-28T04:42:25;101393.91;;;3.10;100.00
15382;BME280;7789;51.364;12.358;2023-01-28T04:47:29;101395.72;;;3.08;100.00
15382;BME280;7789;51.364;12.358;2023-01-28T04:52:33;101393.34;;;3.02;100.00
15382;BME280;7789;51.364;12.358;2023-01-28T04:57:36;101387.31;;;3.01;100.00
15382;BME280;7789;51.364;12.358;2023-01-28T05:02:41;101391.44;;;3.07;100.00
15382;BME280;7789;51.364;12.358;2023-01-28T05:07:50;101397.53;;;3.04;100.00
15382;BME280;7789;51.364;12.358;2023-01-28T05:12:54;101401.88;;;3.04;100.00
15382;BME280;7789;51.364;12.358;2023-01-28T05:17:58;101416.63;;;3.00;100.00
15382;BME280;7789;51.364;12.358;2023-01-28T05:23:02;101410.38;;;3.07;100.00
15382;BME280;7789;51.364;12.358;2023-01-28T05:28:05;101422.53;;;3.04;100.00
15382;BME280;7789;51.364;12.358;2023-01-28T05:33:10;101423.59;;;2.98;100.00
15382;BME280;7789;51.364;12.358;2023-01-28T05:38:13;101431.28;;;3.00;100.00
15382;BME280;7789;51.364;12.358;2023-01-28T05:43:16;101436.50;;;2.98;100.00
15382;BME280;7789;51.364;12.358;2023-01-28T05:48:21;101435.63;;;2.98;100.00
15382;BME280;7789;51.364;12.358;2023-01-28T05:53:24;101451.09;;;2.99;100.00
15382;BME280;7789;51.364;12.358;2023-01-28T05:58:28;101448.47;;;3.01;100.00
15382;BME280;7789;51.364;12.358;2023-01-28T06:03:34;101464.00;;;2.99;100.00
15382;BME280;7789;51.364;12.358;2023-01-28T06:08:37;101457.13;;;3.00;100.00
15382;BME280;7789;51.364;12.358;2023-01-28T06:13:40;101459.88;;;2.94;100.00
15382;BME280;7789;51.364;12.358;2023-01-28T06:18:45;101471.31;;;2.87;100.00
15382;BME280;7789;51.364;12.358;2023-01-28T06:23:48;101461.94;;;2.84;100.00
15382;BME280;7789;51.364;12.358;2023-01-28T06:28:52;101467.94;;;2.85;100.00
15382;BME280;7789;51.364;12.358;2023-01-28T06:33:56;101474.03;;;2.82;100.00
15382;BME280;7789;51.364;12.358;2023-01-28T06:38:59;101481.09;;;2.77;100.00
15382;BME280;7789;51.364;12.358;2023-01-28T06:44:03;101487.94;;;2.78;100.00
15382;BME280;7789;51.364;12.358;2023-01-28T06:49:07;101489.56;;;2.81;100.00
15382;BME280;7789;51.364;12.358;2023-01-28T06:54:11;101500.75;;;2.81;100.00
15382;BME280;7789;51.364;12.358;2023-01-28T06:59:14;101498.19;;;2.80;100.00
15382;BME280;7789;51.364;12.358;2023-01-28T07:04:19;101499.97;;;2.79;100.00
15382;BME280;7789;51.364;12.358;2023-01-28T07:09:23;101502.34;;;2.85;100.00
15382;BME280;7789;51.364;12.358;2023-01-28T07:14:26;101500.66;;;2.84;100.00
15382;BME280;7789;51.364;12.358;2023-01-28T07:19:31;101507.00;;;2.74;100.00
15382;BME280;7789;51.364;12.358;2023-01-28T07:24:34;101513.22;;;2.69;99.03
15382;BME280;7789;51.364;12.358;2023-01-28T07:29:37;101516.63;;;2.69;96.51
15382;BME280;7789;51.364;12.358;2023-01-28T07:34:44;101509.84;;;2.67;95.19
15382;BME280;7789;51.364;12.358;2023-01-28T07:39:47;101512.41;;;2.67;91.02
15382;BME280;7789;51.364;12.358;2023-01-28T07:44:53;101508.88;;;2.69;88.93
15382;BME280;7789;51.364;12.358;2023-01-28T07:49:58;101520.72;;;2.76;88.06
15382;BME280;7789;51.364;12.358;2023-01-28T07:55:03;101519.91;;;2.74;87.29
15382;BME280;7789;51.364;12.358;2023-01-28T08:00:08;101520.72;;;2.76;85.87
15382;BME280;7789;51.364;12.358;2023-01-28T08:05:22;101520.66;;;2.78;85.07
15382;BME280;7789;51.364;12.358;2023-01-28T08:10:26;101528.47;;;2.76;83.83
15382;BME280;7789;51.364;12.358;2023-01-28T08:15:36;101522.28;;;2.80;83.88
15382;BME280;7789;51.364;12.358;2023-01-28T08:20:42;101537.91;;;2.76;84.04
15382;BME280;7789;51.364;12.358;2023-01-28T08:25:48;101523.28;;;2.76;84.43
15382;BME280;7789;51.364;12.358;2023-01-28T08:30:52;101530.94;;;2.79;84.50
15382;BME280;7789;51.364;12.358;2023-01-28T08:35:57;101541.28;;;2.78;84.55
15382;BME280;7789;51.364;12.358;2023-01-28T08:41:04;101530.88;;;2.81;83.27
15382;BME280;7789;51.364;12.358;2023-01-28T08:46:07;101536.84;;;2.83;83.22
15382;BME280;7789;51.364;12.358;2023-01-28T08:51:12;101529.13;;;2.83;81.92
15382;BME280;7789;51.364;12.358;2023-01-28T08:56:16;101539.22;;;2.89;80.64
15382;BME280;7789;51.364;12.358;2023-01-28T09:01:19;101546.09;;;2.90;80.71
15382;BME280;7789;51.364;12.358;2023-01-28T09:06:25;101550.38;;;2.89;79.73
15382;BME280;7789;51.364;12.358;2023-01-28T09:11:29;101559.25;;;2.81;78.82
15382;BME280;7789;51.364;12.358;2023-01-28T09:16:33;101562.59;;;2.84;77.80
15382;BME280;7789;51.364;12.358;2023-01-28T09:21:39;101561.94;;;2.78;77.48
15382;BME280;7789;51.364;12.358;2023-01-28T09:26:43;101570.41;;;2.83;78.37
15382;BME280;7789;51.364;12.358;2023-01-28T09:31:46;101575.47;;;2.86;77.68
15382;BME280;7789;51.364;12.358;2023-01-28T09:36:51;101586.63;;;2.86;78.00
15382;BME280;7789;51.364;12.358;2023-01-28T09:42:08;101587.72;;;2.79;77.14
15382;BME280;7789;51.364;12.358;2023-01-28T09:47:23;101595.34;;;2.84;76.71
15382;BME280;7789;51.364;12.358;2023-01-28T09:52:36;101600.19;;;2.93;76.68
15382;BME280;7789;51.364;12.358;2023-01-28T09:57:45;101602.69;;;2.96;76.83
15382;BME280;7789;51.364;12.358;2023-01-28T10:03:02;101606.91;;;2.98;76.72
15382;BME280;7789;51.364;12.358;2023-01-28T10:08:21;101616.31;;;3.01;76.47
15382;BME280;7789;51.364;12.358;2023-01-28T10:13:35;101605.69;;;3.10;76.28
15382;BME280;7789;51.364;12.358;2023-01-28T10:18:49;101612.53;;;3.11;76.03
15382;BME280;7789;51.364;12.358;2023-01-28T10:24:02;101603.78;;;3.15;75.03
15382;BME280;7789;51.364;12.358;2023-01-28T10:29:12;101606.34;;;3.16;75.29
15382;BME280;7789;51.364;12.358;2023-01-28T10:34:16;101598.59;;;3.16;75.72
15382;BME280;7789;51.364;12.358;2023-01-28T10:39:24;101594.28;;;3.17;74.05
15382;BME280;7789;51.364;12.358;2023-01-28T10:44:31;101596.56;;;3.26;74.08
15382;BME280;7789;51.364;12.358;2023-01-28T10:49:40;101584.38;;;3.29;73.85
15382;BME280;7789;51.364;12.358;2023-01-28T10:54:46;101599.88;;;3.29;74.44
15382;BME280;7789;51.364;12.358;2023-01-28T10:59:50;101587.63;;;3.36;73.84
15382;BME280;7789;51.364;12.358;2023-01-28T11:05:02;101584.94;;;3.39;74.49
15382;BME280;7789;51.364;12.358;2023-01-28T11:10:24;101587.03;;;3.52;73.06
15382;BME280;7789;51.364;12.358;2023-01-28T11:15:31;101575.97;;;3.49;73.97
15382;BME280;7789;51.364;12.358;2023-01-28T11:20:40;101579.78;;;3.63;72.92
15382;BME280;7789;51.364;12.358;2023-01-28T11:25:58;101577.66;;;3.74;72.94
15382;BME280;7789;51.364;12.358;2023-01-28T11:31:03;101580.09;;;3.78;72.80
15382;BME280;7789;51.364;12.358;2023-01-28T11:36:12;101577.31;;;3.84;73.33
15382;BME280;7789;51.364;12.358;2023-01-28T11:41:18;101572.97;;;3.85;72.97
15382;BME280;7789;51.364;12.358;2023-01-28T11:46:58;101576.44;;;3.84;71.72
15382;BME280;7789;51.364;12.358;2023-01-28T11:52:13;101568.28;;;3.71;71.98
15382;BME280;7789;51.364;12.358;2023-01-28T11:57:29;101575.03;;;3.75;71.10
15382;BME280;7789;51.364;12.358;2023-01-28T12:02:48;101562.78;;;3.80;71.44
15382;BME280;7789;51.364;12.358;2023-01-28T12:07:55;101561.19;;;3.76;71.97
15382;BME280;7789;51.364;12.358;2023-01-28T12:13:23;101553.59;;;3.72;71.29
15382;BME280;7789;51.364;12.358;2023-01-28T12:18:40;101563.16;;;3.70;72.49
15382;BME280;7789;51.364;12.358;2023-01-28T12:24:02;101563.78;;;3.76;73.08
15382;BME280;7789;51.364;12.358;2023-01-28T12:29:24;101559.38;;;3.80;73.66
15382;BME280;7789;51.364;12.358;2023-01-28T12:40:14;101546.22;;;3.86;75.13
15382;BME280;7789;51.364;12.358;2023-01-28T12:45:25;101544.38;;;3.89;75.72
15382;BME280;7789;51.364;12.358;2023-01-28T12:50:38;101540.28;;;3.82;75.57
15382;BME280;7789;51.364;12.358;2023-01-28T12:55:59;101544.13;;;3.72;74.75
15382;BME280;7789;51.364;12.358;2023-01-28T13:01:12;101537.56;;;3.62;75.18
15382;BME280;7789;51.364;12.358;2023-01-28T13:06:30;101541.66;;;3.69;74.25
15382;BME280;7789;51.364;12.358;2023-01-28T13:11:41;101541.91;;;3.62;74.32
15382;BME280;7789;51.364;12.358;2023-01-28T13:16:49;101549.50;;;3.66;73.83
15382;BME280;7789;51.364;12.358;2023-01-28T13:21:53;101553.19;;;3.59;74.51
15382;BME280;7789;51.364;12.358;2023-01-28T13:26:56;101555.72;;;3.61;75.04
15382;BME280;7789;51.364;12.358;2023-01-28T13:32:03;101562.38;;;3.68;75.91
15382;BME280;7789;51.364;12.358;2023-01-28T13:37:29;101563.28;;;3.67;76.59
15382;BME280;7789;51.364;12.358;2023-01-28T13:42:36;101566.84;;;3.63;76.75
15382;BME280;7789;51.364;12.358;2023-01-28T13:47:44;101573.94;;;3.58;76.77
15382;BME280;7789;51.364;12.358;2023-01-28T13:52:58;101567.50;;;3.69;77.20
15382;BME280;7789;51.364;12.358;2023-01-28T13:58:39;101566.44;;;3.75;76.25
15382;BME280;7789;51.364;12.358;2023-01-28T14:04:06;101560.13;;;3.83;77.43
15382;BME280;7789;51.364;12.358;2023-01-28T14:09:30;101557.41;;;3.86;75.70
15382;BME280;7789;51.364;12.358;2023-01-28T14:15:00;101546.22;;;3.86;75.13
15382;BME280;7789;51.364;12.358;2023-01-28T14:20:17;101543.63;;;3.86;74.76
15382;BME280;7789;51.364;12.358;2023-01-28T14:25:31;101546.09;;;3.89;74.04
15382;BME280;7789;51.364;12.358;2023-01-28T14:30:42;101545.31;;;3.87;73.88
15382;BME280;7789;51.364;12.358;2023-01-28T14:35:54;101554.03;;;3.84;73.99
15382;BME280;7789;51.364;12.358;2023-01-28T14:40:59;101549.84;;;3.80;74.61
15382;BME280;7789;51.364;12.358;2023-01-28T14:46:12;101542.00;;;3.83;74.00
15382;BME280;7789;51.364;12.358;2023-01-28T14:51:39;101542.78;;;3.85;73.98
15382;BME280;7789;51.364;12.358;2023-01-28T14:56:57;101547.34;;;3.79;73.95
15382;BME280;7789;51.364;12.358;2023-01-28T15:02:16;101549.06;;;3.78;74.46
15382;BME280;7789;51.364;12.358;2023-01-28T15:07:23;101517.59;;;3.67;74.23
15382;BME280;7789;51.364;12.358;2023-01-28T15:12:27;101522.75;;;3.67;74.16
15382;BME280;7789;51.364;12.358;2023-01-28T15:17:32;101523.66;;;3.66;74.19
15382;BME280;7789;51.364;12.358;2023-01-28T15:22:37;101523.84;;;3.60;73.51
15382;BME280;7789;51.364;12.358;2023-01-28T15:27:44;101517.06;;;3.58;74.43
15382;BME280;7789;51.364;12.358;2023-01-28T15:32:58;101524.22;;;3.50;74.01
15382;BME280;7789;51.364;12.358;2023-01-28T15:38:02;101540.63;;;3.49;74.26
15382;BME280;7789;51.364;12.358;2023-01-28T15:43:18;101546.69;;;3.48;73.51
15382;BME280;7789;51.364;12.358;2023-01-28T15:48:24;101542.53;;;3.44;73.27
15382;BME280;7789;51.364;12.358;2023-01-28T15:53:35;101540.91;;;3.42;73.55
15382;BME280;7789;51.364;12.358;2023-01-28T15:58:49;101535.06;;;3.37;74.21
15382;BME280;7789;51.364;12.358;2023-01-28T16:04:00;101553.94;;;3.39;73.63
15382;BME280;7789;51.364;12.358;2023-01-28T16:09:15;101558.22;;;3.38;73.80
15382;BME280;7789;51.364;12.358;2023-01-28T16:14:23;101561.03;;;3.32;74.27
15382;BME280;7789;51.364;12.358;2023-01-28T16:19:32;101562.94;;;3.27;74.14
15382;BME280;7789;51.364;12.358;2023-01-28T16:24:47;101550.81;;;3.29;74.83
15382;BME280;7789;51.364;12.358;2023-01-28T16:29:57;101563.81;;;3.26;75.43
15382;BME280;7789;51.364;12.358;2023-01-28T16:35:01;101571.56;;;3.26;75.64
15382;BME280;7789;51.364;12.358;2023-01-28T16:40:11;101576.88;;;3.22;75.35
15382;BME280;7789;51.364;12.358;2023-01-28T16:45:21;101581.19;;;3.21;75.38
15382;BME280;7789;51.364;12.358;2023-01-28T16:50:25;101580.47;;;3.18;76.10
15382;BME280;7789;51.364;12.358;2023-01-28T16:55:32;101584.66;;;3.20;76.37
15382;BME280;7789;51.364;12.358;2023-01-28T17:00:36;101589.91;;;3.19;76.42
15382;BME280;7789;51.364;12.358;2023-01-28T17:05:42;101596.78;;;3.18;77.38
15382;BME280;7789;51.364;12.358;2023-01-28T17:10:52;101578.78;;;3.17;77.07
15382;BME280;7789;51.364;12.358;2023-01-28T17:15:56;101582.19;;;3.17;76.78
15382;BME280;7789;51.364;12.358;2023-01-28T17:21:04;101566.81;;;3.14;77.15
15382;BME280;7789;51.364;12.358;2023-01-28T17:26:13;101557.38;;;3.13;76.19
15382;BME280;7789;51.364;12.358;2023-01-28T17:31:17;101546.34;;;3.08;76.00
15382;BME280;7789;51.364;12.358;2023-01-28T17:36:23;101553.19;;;3.09;75.74
15382;BME280;7789;51.364;12.358;2023-01-28T17:41:29;101562.66;;;3.09;75.97
15382;BME280;7789;51.364;12.358;2023-01-28T17:46:32;101566.91;;;3.11;75.64
15382;BME280;7789;51.364;12.358;2023-01-28T17:51:36;101580.72;;;3.10;75.69
15382;BME280;7789;51.364;12.358;2023-01-28T17:56:40;101596.34;;;3.06;75.58
15382;BME280;7789;51.364;12.358;2023-01-28T18:01:44;101614.53;;;3.03;74.84
15382;BME280;7789;51.364;12.358;2023-01-28T18:06:48;101627.38;;;3.04;74.77
15382;BME280;7789;51.364;12.358;2023-01-28T18:11:53;101634.22;;;3.05;74.54
15382;BME280;7789;51.364;12.358;2023-01-28T18:16:57;101631.66;;;3.05;74.53
15382;BME280;7789;51.364;12.358;2023-01-28T18:22:00;101629.88;;;3.07;74.96
15382;BME280;7789;51.364;12.358;2023-01-28T18:27:08;101660.78;;;3.10;74.75
15382;BME280;7789;51.364;12.358;2023-01-28T18:32:11;101663.41;;;3.09;74.88
15382;BME280;7789;51.364;12.358;2023-01-28T18:37:14;101659.13;;;3.08;74.80
15382;BME280;7789;51.364;12.358;2023-01-28T18:42:19;101646.25;;;3.06;74.65
15382;BME280;7789;51.364;12.358;2023-01-28T18:47:23;101652.28;;;3.07;74.68
15382;BME280;7789;51.364;12.358;2023-01-28T18:52:26;101654.88;;;3.05;74.13
15382;BME280;7789;51.364;12.358;2023-01-28T18:57:30;101667.75;;;3.07;75.17
15382;BME280;7789;51.364;12.358;2023-01-28T19:02:34;101652.28;;;3.07;75.05
15382;BME280;7789;51.364;12.358;2023-01-28T19:07:37;101660.06;;;3.05;75.07
15382;BME280;7789;51.364;12.358;2023-01-28T19:12:42;101654.94;;;3.04;75.35
15382;BME280;7789;51.364;12.358;2023-01-28T19:17:45;101655.78;;;3.04;75.44
15382;BME280;7789;51.364;12.358;2023-01-28T19:22:49;101651.50;;;3.03;75.57
15382;BME280;7789;51.364;12.358;2023-01-28T19:27:54;101650.69;;;3.03;75.06
15382;BME280;7789;51.364;12.358;2023-01-28T19:32:58;101645.53;;;3.01;75.01
15382;BME280;7789;51.364;12.358;2023-01-28T19:38:02;101644.84;;;2.96;75.03
15382;BME280;7789;51.364;12.358;2023-01-28T19:43:07;101653.59;;;2.92;73.78
15382;BME280;7789;51.364;12.358;2023-01-28T19:48:10;101649.31;;;2.91;74.33
15382;BME280;7789;51.364;12.358;2023-01-28T19:53:16;101645.09;;;2.89;74.48
15382;BME280;7789;51.364;12.358;2023-01-28T19:58:21;101639.16;;;2.85;73.42
15382;BME280;7789;51.364;12.358;2023-01-28T20:03:25;101654.56;;;2.88;73.81
15382;BME280;7789;51.364;12.358;2023-01-28T20:08:29;101640.84;;;2.86;73.89
15382;BME280;7789;51.364;12.358;2023-01-28T20:13:38;101624.53;;;2.86;73.81
15382;BME280;7789;51.364;12.358;2023-01-28T20:18:43;101636.66;;;2.82;73.31
15382;BME280;7789;51.364;12.358;2023-01-28T20:23:55;101652.16;;;2.82;73.53
15382;BME280;7789;51.364;12.358;2023-01-28T20:29:02;101647.78;;;2.84;73.17
15382;BME280;7789;51.364;12.358;2023-01-28T20:34:07;101648.78;;;2.80;73.33
15382;BME280;7789;51.364;12.358;2023-01-28T20:39:17;101629.84;;;2.80;73.10
15382;BME280;7789;51.364;12.358;2023-01-28T20:44:23;101632.50;;;2.78;72.72
15382;BME280;7789;51.364;12.358;2023-01-28T20:49:27;101641.88;;;2.81;73.59
15382;BME280;7789;51.364;12.358;2023-01-28T20:54:32;101630.75;;;2.79;73.41
15382;BME280;7789;51.364;12.358;2023-01-28T20:59:37;101648.81;;;2.79;73.42
15382;BME280;7789;51.364;12.358;2023-01-28T21:04:40;101666.94;;;2.77;73.43
15382;BME280;7789;51.364;12.358;2023-01-28T21:09:44;101673.84;;;2.77;73.20
15382;BME280;7789;51.364;12.358;2023-01-28T21:14:48;101663.69;;;2.71;73.70
15382;BME280;7789;51.364;12.358;2023-01-28T21:19:52;101654.28;;;2.68;73.19
15382;BME280;7789;51.364;12.358;2023-01-28T21:24:56;101654.47;;;2.62;73.50
15382;BME280;7789;51.364;12.358;2023-01-28T21:30:02;101653.63;;;2.62;73.52
15382;BME280;7789;51.364;12.358;2023-01-28T21:35:08;101647.75;;;2.57;73.04
15382;BME280;7789;51.364;12.358;2023-01-28T21:40:15;101645.09;;;2.60;72.91
15382;BME280;7789;51.364;12.358;2023-01-28T21:45:20;101640.88;;;2.57;72.86
15382;BME280;7789;51.364;12.358;2023-01-28T21:50:24;101654.91;;;2.47;72.95
15382;BME280;7789;51.364;12.358;2023-01-28T21:55:28;101658.38;;;2.46;72.55
15382;BME280;7789;51.364;12.358;2023-01-28T22:00:48;101661.84;;;2.45;72.73
15382;BME280;7789;51.364;12.358;2023-01-28T22:05:54;101660.34;;;2.38;72.91
15382;BME280;7789;51.364;12.358;2023-01-28T22:11:00;101664.78;;;2.33;73.33
15382;BME280;7789;51.364;12.358;2023-01-28T22:16:06;101658.09;;;2.26;73.26
15382;BME280;7789;51.364;12.358;2023-01-28T22:21:10;101654.13;;;2.15;73.47
15382;BME280;7789;51.364;12.358;2023-01-28T22:26:17;101649.25;;;2.04;74.09
15382;BME280;7789;51.364;12.358;2023-01-28T22:31:22;101655.56;;;1.93;74.74
15382;BME280;7789;51.364;12.358;2023-01-28T22:36:26;101653.78;;;1.95;74.93
15382;BME280;7789;51.364;12.358;2023-01-28T22:41:30;101643.34;;;2.01;74.47
15382;BME280;7789;51.364;12.358;2023-01-28T22:46:37;101645.03;;;2.02;74.65
15382;BME280;7789;51.364;12.358;2023-01-28T22:51:41;101643.44;;;1.96;74.73
15382;BME280;7789;51.364;12.358;2023-01-28T22:56:45;101640.19;;;1.90;74.88
15382;BME280;7789;51.364;12.358;2023-01-28T23:01:51;101624.03;;;1.83;75.48
15382;BME280;7789;51.364;12.358;2023-01-28T23:06:54;101630.13;;;1.81;75.81
15382;BME280;7789;51.364;12.358;2023-01-28T23:11:58;101626.69;;;1.80;76.14
15382;BME280;7789;51.364;12.358;2023-01-28T23:17:03;101624.28;;;1.75;76.11
15382;BME280;7789;51.364;12.358;2023-01-28T23:22:26;101627.16;;;1.63;76.63
15382;BME280;7789;51.364;12.358;2023-01-28T23:27:47;101621.41;;;1.53;77.01
15382;BME280;7789;51.364;12.358;2023-01-28T23:32:53;101619.88;;;1.46;77.45
15382;BME280;7789;51.364;12.358;2023-01-28T23:37:57;101616.59;;;1.40;77.64
15382;BME280;7789;51.364;12.358;2023-01-28T23:43:01;101612.47;;;1.33;77.59
15382;BME280;7789;51.364;12.358;2023-01-28T23:48:07;101603.16;;;1.27;77.55
15382;BME280;7789;51.364;12.358;2023-01-28T23:53:13;101607.56;;;1.22;77.69
15382;BME280;7789;51.364;12.358;2023-01-28T23:58:17;101601.63;;;1.19;78.21
